Time;durP1;ratioP1;P1;durP2;ratioP2;P2;SDS_P1;SDS_P2;PMS_P1;PMS_P2;Temp;Humidity;BMP_temperature;BMP_pressure;BME280_temperature;BME280_humidity;BME280_pressure;Samples;Min_cycle;Max_cycle;Signal;HPM_P1;HPM_P2
2022/01/25 00:09:13;;;;;;;32.13;14.48;;;;;;;;;;5055347;28;20054;-66
2022/01/25 00:29:55;;;;;;;30.10;15.07;;;;;;;;;;5053323;28;20056;-66
2022/01/25 00:32:23;;;;;;;29.80;15.02;;;;;;;;;;5053259;28;20144;-66
2022/01/25 00:34:56;;;;;;;30.85;15.10;;;;;;;;;;5054959;28;20045;-66
2022/01/25 00:37:30;;;;;;;32.10;15.65;;;;;;;;;;5054562;28;20041;-66
2022/01/25 00:39:58;;;;;;;31.85;14.88;;;;;;;;;;5053404;28;20052;-67
2022/01/25 00:42:28;;;;;;;32.08;15.48;;;;;;;;;;5052922;28;20045;-67
2022/01/25 00:44:56;;;;;;;28.92;15.50;;;;;;;;;;5054330;28;20036;-67
2022/01/25 00:47:27;;;;;;;27.13;14.60;;;;;;;;;;5054444;28;20503;-67
2022/01/25 00:49:59;;;;;;;30.15;14.82;;;;;;;;;;5054475;28;20399;-67
2022/01/25 00:55:11;;;;;;;30.95;14.23;;;;;;;;;;5053088;28;20063;-67
2022/01/25 00:57:40;;;;;;;29.02;14.80;;;;;;;;;;5054053;28;20055;-67
2022/01/25 01:00:10;;;;;;;27.88;13.85;;;;;;;;;;5054656;28;20044;-67
2022/01/25 01:02:46;;;;;;;28.45;14.63;;;;;;;;;;5054261;28;20037;-67
2022/01/25 01:07:46;;;;;;;28.50;13.65;;;;;;;;;;5052592;28;19921;-67
2022/01/25 01:10:19;;;;;;;30.75;15.40;;;;;;;;;;5053920;28;20041;-67
2022/01/25 01:15:39;;;;;;;29.45;14.55;;;;;;;;;;5053185;28;20117;-67
2022/01/25 01:29:46;;;;;;;34.08;14.02;;;;;;;;;;5053707;28;20124;-67
2022/01/25 01:32:44;;;;;;;28.77;14.52;;;;;;;;;;5052454;28;20052;-67
2022/01/25 01:38:14;;;;;;;28.77;15.25;;;;;;;;;;5053421;28;20075;-67
2022/01/25 01:46:17;;;;;;;30.88;14.25;;;;;;;;;;5052282;28;20454;-66
2022/01/25 01:48:56;;;;;;;30.70;14.00;;;;;;;;;;5053310;28;20040;-67
2022/01/25 01:51:34;;;;;;;29.35;14.85;;;;;;;;;;5053366;28;20064;-67
2022/01/25 01:54:03;;;;;;;27.50;14.65;;;;;;;;;;5052036;28;20144;-67
2022/01/25 01:56:33;;;;;;;30.02;15.55;;;;;;;;;;5051840;28;20475;-67
2022/01/25 01:59:04;;;;;;;29.55;14.10;;;;;;;;;;5051798;28;20048;-67
2022/01/25 02:01:36;;;;;;;31.17;15.82;;;;;;;;;;5053390;28;20116;-67
2022/01/25 02:04:29;;;;;;;28.55;14.25;;;;;;;;;;5053182;28;20049;-67
2022/01/25 02:06:57;;;;;;;31.60;14.65;;;;;;;;;;5053148;28;20143;-67
2022/01/25 02:09:28;;;;;;;29.42;14.85;;;;;;;;;;5053346;28;20045;-67
2022/01/25 02:11:57;;;;;;;32.08;15.30;;;;;;;;;;5051935;28;20060;-67
2022/01/25 02:14:28;;;;;;;31.23;14.70;;;;;;;;;;5052987;28;20041;-67
2022/01/25 02:17:24;;;;;;;31.10;14.70;;;;;;;;;;5053466;28;20041;-67
2022/01/25 02:23:12;;;;;;;31.98;14.57;;;;;;;;;;5051692;28;20045;-67
2022/01/25 02:25:41;;;;;;;34.03;14.15;;;;;;;;;;5054688;28;20108;-67
2022/01/25 02:28:10;;;;;;;33.05;15.20;;;;;;;;;;5057087;28;20037;-67
2022/01/25 02:30:40;;;;;;;29.30;13.85;;;;;;;;;;5057071;28;20426;-67
2022/01/25 02:33:09;;;;;;;26.63;13.82;;;;;;;;;;5055478;28;20049;-67
2022/01/25 02:35:37;;;;;;;29.08;14.30;;;;;;;;;;5056617;28;20103;-67
2022/01/25 02:38:05;;;;;;;27.23;13.63;;;;;;;;;;5057364;28;20090;-68
2022/01/25 02:40:35;;;;;;;25.45;13.00;;;;;;;;;;5056860;28;20148;-68
2022/01/25 02:43:04;;;;;;;30.42;14.43;;;;;;;;;;5055317;28;20139;-68
2022/01/25 02:45:34;;;;;;;27.65;14.07;;;;;;;;;;5057097;28;20550;-68
2022/01/25 02:51:03;;;;;;;27.90;13.32;;;;;;;;;;5056510;28;20045;-68
2022/01/25 02:53:31;;;;;;;25.48;12.63;;;;;;;;;;5056245;28;20080;-68
2022/01/25 02:56:24;;;;;;;28.75;13.50;;;;;;;;;;5056702;28;20488;-68
2022/01/25 02:58:56;;;;;;;30.25;13.68;;;;;;;;;;5056797;28;20400;-68
2022/01/25 03:01:27;;;;;;;27.48;14.15;;;;;;;;;;5055070;28;20482;-68
2022/01/25 03:03:56;;;;;;;25.88;12.70;;;;;;;;;;5056463;28;20041;-68
2022/01/25 03:06:29;;;;;;;29.02;13.18;;;;;;;;;;5056751;28;20048;-68
2022/01/25 03:09:02;;;;;;;29.52;13.43;;;;;;;;;;5056158;28;20053;-68
2022/01/25 03:11:30;;;;;;;29.02;14.18;;;;;;;;;;5056264;28;20116;-68
2022/01/25 03:14:01;;;;;;;28.27;14.02;;;;;;;;;;5054681;28;20053;-68
2022/01/25 03:16:41;;;;;;;28.35;13.57;;;;;;;;;;5054607;28;20503;-68
2022/01/25 03:25:02;;;;;;;28.33;13.85;;;;;;;;;;5047403;28;20419;-68
2022/01/25 03:30:53;;;;;;;27.70;14.48;;;;;;;;;;5055615;28;20469;-68
2022/01/25 03:33:22;;;;;;;27.50;13.32;;;;;;;;;;5055763;28;20048;-68
2022/01/25 03:35:54;;;;;;;29.45;13.80;;;;;;;;;;5054384;28;20060;-68
2022/01/25 03:38:22;;;;;;;25.73;12.88;;;;;;;;;;5055113;28;20043;-68
2022/01/25 03:40:52;;;;;;;27.83;13.85;;;;;;;;;;5055786;28;20036;-68
2022/01/25 03:43:25;;;;;;;30.42;13.65;;;;;;;;;;5055747;28;20076;-68
2022/01/25 03:46:06;;;;;;;28.67;14.57;;;;;;;;;;5055910;28;20135;-68
2022/01/25 03:51:05;;;;;;;29.67;14.02;;;;;;;;;;5055667;28;20037;-68
2022/01/25 03:53:32;;;;;;;25.80;13.20;;;;;;;;;;5054034;28;20049;-68
2022/01/25 03:56:03;;;;;;;27.67;13.65;;;;;;;;;;5055557;28;20048;-68
2022/01/25 03:58:36;;;;;;;28.17;13.02;;;;;;;;;;5055382;28;20112;-67
2022/01/25 04:01:08;;;;;;;31.58;14.80;;;;;;;;;;5055442;28;20049;-67
2022/01/25 04:03:42;;;;;;;27.27;13.70;;;;;;;;;;5054835;28;20550;-67
2022/01/25 04:06:19;;;;;;;26.92;13.70;;;;;;;;;;5055033;28;20045;-67
2022/01/25 04:08:51;;;;;;;28.30;13.82;;;;;;;;;;5053815;28;20148;-67
2022/01/25 04:11:19;;;;;;;28.13;14.32;;;;;;;;;;5055392;28;20047;-67
2022/01/25 04:14:12;;;;;;;27.05;13.35;;;;;;;;;;5055659;28;20048;-68
2022/01/25 04:20:43;;;;;;;26.27;12.77;;;;;;;;;;5055139;28;20059;-67
2022/01/25 04:26:31;;;;;;;30.52;13.18;;;;;;;;;;5053833;28;20091;-67
2022/01/25 04:28:59;;;;;;;27.55;13.98;;;;;;;;;;5054532;28;20049;-67
2022/01/25 04:31:37;;;;;;;28.00;13.25;;;;;;;;;;5054558;28;20037;-67
2022/01/25 04:56:22;;;;;;;29.25;14.27;;;;;;;;;;5053163;28;20045;-67
2022/01/25 05:01:56;;;;;;;27.63;13.27;;;;;;;;;;5041722;28;20041;-67
2022/01/25 05:04:35;;;;;;;29.13;13.50;;;;;;;;;;5053948;28;20453;-67
2022/01/25 05:07:21;;;;;;;28.25;13.95;;;;;;;;;;5054317;28;20041;-67
2022/01/25 05:09:51;;;;;;;36.45;15.90;;;;;;;;;;5052851;28;20045;-67
2022/01/25 05:12:40;;;;;;;30.50;14.00;;;;;;;;;;5052649;28;20049;-67
2022/01/25 05:18:49;;;;;;;31.20;15.15;;;;;;;;;;5054100;28;20419;-67
2022/01/25 05:24:37;;;;;;;29.02;12.70;;;;;;;;;;5052205;28;20041;-67
2022/01/25 05:27:06;;;;;;;27.60;12.98;;;;;;;;;;5053046;28;20049;-67
2022/01/25 05:29:35;;;;;;;29.60;15.07;;;;;;;;;;5053276;28;20051;-67
2022/01/25 05:32:03;;;;;;;28.35;14.50;;;;;;;;;;5052598;28;20567;-67
2022/01/25 05:34:37;;;;;;;31.38;14.00;;;;;;;;;;5053933;28;20051;-67
2022/01/25 05:37:11;;;;;;;29.65;14.13;;;;;;;;;;5052153;28;20051;-67
2022/01/25 05:39:39;;;;;;;27.55;13.90;;;;;;;;;;5053721;28;20067;-67
2022/01/25 05:45:18;;;;;;;28.42;14.18;;;;;;;;;;5041190;28;20069;-67
2022/01/25 05:47:51;;;;;;;30.38;14.20;;;;;;;;;;5053223;28;20094;-67
2022/01/25 05:50:24;;;;;;;29.08;13.88;;;;;;;;;;5053291;28;20487;-67
2022/01/25 05:52:57;;;;;;;27.52;13.98;;;;;;;;;;5051936;28;20055;-67
2022/01/25 05:55:29;;;;;;;28.00;14.75;;;;;;;;;;5051651;28;20049;-67
2022/01/25 05:58:24;;;;;;;24.48;12.80;;;;;;;;;;5052082;28;20139;-67
2022/01/25 06:00:52;;;;;;;35.30;14.75;;;;;;;;;;5033093;28;20458;-67
2022/01/25 06:03:20;;;;;;;33.38;13.65;;;;;;;;;;5032700;28;20038;-67
2022/01/25 06:05:48;;;;;;;33.08;14.82;;;;;;;;;;5032509;28;20056;-67
2022/01/25 06:08:18;;;;;;;31.48;14.70;;;;;;;;;;5032119;28;20068;-67
2022/01/25 06:10:48;;;;;;;31.38;15.05;;;;;;;;;;5033168;28;20047;-67
2022/01/25 06:13:17;;;;;;;30.58;14.45;;;;;;;;;;5032946;28;20054;-67
2022/01/25 06:15:47;;;;;;;29.90;14.63;;;;;;;;;;5031868;28;20132;-67
2022/01/25 06:18:16;;;;;;;32.13;15.60;;;;;;;;;;5032998;28;20052;-67
2022/01/25 06:20:45;;;;;;;29.67;15.02;;;;;;;;;;5032626;28;20041;-67
2022/01/25 06:23:12;;;;;;;32.35;15.13;;;;;;;;;;5040104;28;20067;-67
2022/01/25 06:25:46;;;;;;;30.70;14.30;;;;;;;;;;5053087;28;20044;-67
2022/01/25 06:28:13;;;;;;;30.85;14.77;;;;;;;;;;5051572;28;20049;-67
2022/01/25 06:30:44;;;;;;;33.42;14.57;;;;;;;;;;5052660;28;20052;-67
2022/01/25 06:33:13;;;;;;;26.60;13.55;;;;;;;;;;5052823;28;20049;-67
2022/01/25 06:35:46;;;;;;;28.70;14.63;;;;;;;;;;5051489;28;20045;-67
2022/01/25 06:38:14;;;;;;;31.85;14.18;;;;;;;;;;5051404;28;20136;-67
2022/01/25 06:40:44;;;;;;;25.13;12.82;;;;;;;;;;5053076;28;20091;-67
2022/01/25 06:43:13;;;;;;;28.83;13.77;;;;;;;;;;5052512;28;20483;-68
2022/01/25 06:45:44;;;;;;;25.60;14.13;;;;;;;;;;5052521;28;20083;-68
2022/01/25 06:48:13;;;;;;;29.73;14.10;;;;;;;;;;5052533;28;20048;-67
2022/01/25 06:50:45;;;;;;;28.17;14.48;;;;;;;;;;5052623;28;20041;-67
2022/01/25 06:53:12;;;;;;;26.42;14.85;;;;;;;;;;5052759;28;20124;-67
2022/01/25 06:55:49;;;;;;;32.20;15.48;;;;;;;;;;5051210;28;20041;-67
2022/01/25 06:58:16;;;;;;;29.63;15.82;;;;;;;;;;5052483;28;20037;-67
2022/01/25 07:00:48;;;;;;;27.98;14.25;;;;;;;;;;5051325;28;20048;-67
2022/01/25 07:03:17;;;;;;;27.63;14.73;;;;;;;;;;5051126;28;20384;-67
2022/01/25 07:05:45;;;;;;;26.30;13.57;;;;;;;;;;5050983;28;20091;-67
2022/01/25 07:08:19;;;;;;;31.13;14.23;;;;;;;;;;5051133;28;20098;-67
2022/01/25 07:10:52;;;;;;;25.60;13.77;;;;;;;;;;5052363;28;20110;-67
2022/01/25 07:13:22;;;;;;;26.85;14.23;;;;;;;;;;5055540;28;20105;-67
2022/01/25 07:15:56;;;;;;;26.67;13.77;;;;;;;;;;5056732;28;20555;-67
2022/01/25 07:18:25;;;;;;;31.52;14.23;;;;;;;;;;5056071;28;20124;-67
2022/01/25 07:20:53;;;;;;;31.88;16.17;;;;;;;;;;5054655;28;20037;-67
2022/01/25 07:23:25;;;;;;;32.83;15.05;;;;;;;;;;5056105;28;20151;-67
2022/01/25 07:25:53;;;;;;;26.45;14.63;;;;;;;;;;5056149;28;20049;-67
2022/01/25 07:28:23;;;;;;;31.05;15.20;;;;;;;;;;5055642;28;20437;-67
2022/01/25 07:30:55;;;;;;;27.27;15.20;;;;;;;;;;5054623;28;20510;-67
2022/01/25 07:33:27;;;;;;;32.47;16.40;;;;;;;;;;5055012;28;20082;-67
2022/01/25 07:36:05;;;;;;;25.98;14.32;;;;;;;;;;5056054;28;20049;-66
2022/01/25 07:38:35;;;;;;;30.60;14.65;;;;;;;;;;5055374;28;20041;-68
2022/01/25 07:41:45;;;;;;;28.60;14.15;;;;;;;;;;5056199;28;20052;-67
2022/01/25 07:44:31;;;;;;;25.48;13.18;;;;;;;;;;5054722;28;20052;-67
2022/01/25 07:47:08;;;;;;;26.80;13.75;;;;;;;;;;5054645;28;20468;-67
2022/01/25 07:50:05;;;;;;;27.45;14.05;;;;;;;;;;5055152;28;20132;-67
2022/01/25 07:52:32;;;;;;;28.80;14.20;;;;;;;;;;5055521;28;20048;-67
2022/01/25 07:55:00;;;;;;;27.98;13.40;;;;;;;;;;5055480;28;20053;-67
2022/01/25 07:57:34;;;;;;;24.58;13.07;;;;;;;;;;5055501;28;20041;-67
2022/01/25 08:00:04;;;;;;;27.90;13.38;;;;;;;;;;5055106;28;20470;-67
2022/01/25 08:02:41;;;;;;;27.63;13.10;;;;;;;;;;5055093;28;20056;-67
2022/01/25 08:05:19;;;;;;;24.27;12.52;;;;;;;;;;5055401;28;20091;-67
2022/01/25 08:08:06;;;;;;;28.00;13.98;;;;;;;;;;4993763;28;20054;-67
2022/01/25 08:10:50;;;;;;;26.73;13.65;;;;;;;;;;4992971;28;20472;-67
2022/01/25 08:13:28;;;;;;;27.75;13.73;;;;;;;;;;4993879;28;20501;-67
2022/01/25 08:16:21;;;;;;;24.80;12.85;;;;;;;;;;4980505;28;20053;-67
2022/01/25 08:19:04;;;;;;;25.08;13.45;;;;;;;;;;4935923;29;20530;-67
2022/01/25 08:21:33;;;;;;;25.33;13.80;;;;;;;;;;4935632;29;20040;-67
2022/01/25 08:24:09;;;;;;;25.58;13.45;;;;;;;;;;4934982;29;20070;-67
2022/01/25 08:26:53;;;;;;;26.42;14.20;;;;;;;;;;4935496;29;20056;-67
2022/01/25 08:29:36;;;;;;;26.42;15.63;;;;;;;;;;4931453;29;20052;-67
2022/01/25 08:32:47;;;;;;;26.25;14.27;;;;;;;;;;4903865;29;20164;-67
2022/01/25 08:35:47;;;;;;;29.38;15.18;;;;;;;;;;4934170;29;20384;-67
2022/01/25 08:42:13;;;;;;;29.20;14.80;;;;;;;;;;4935773;29;20475;-67
2022/01/25 08:45:22;;;;;;;25.10;13.73;;;;;;;;;;4946184;28;20054;-67
2022/01/25 08:48:17;;;;;;;29.83;14.18;;;;;;;;;;4993522;28;20374;-67
2022/01/25 08:50:59;;;;;;;25.48;13.60;;;;;;;;;;5049903;28;20057;-67
2022/01/25 08:53:46;;;;;;;27.75;13.93;;;;;;;;;;5050510;28;20052;-67
2022/01/25 08:56:41;;;;;;;25.17;13.35;;;;;;;;;;5054763;28;20075;-67
2022/01/25 08:59:28;;;;;;;;;;;;;;;;;;5041623;28;20191;-67
2022/01/25 09:01:56;;;;;;;26.70;13.55;;;;;;;;;;5054176;28;19967;-67
2022/01/25 09:04:25;;;;;;;25.20;12.77;;;;;;;;;;5053977;28;20047;-67
2022/01/25 09:06:59;;;;;;;24.90;13.35;;;;;;;;;;5054233;28;20063;-67
2022/01/25 09:09:30;;;;;;;25.52;14.02;;;;;;;;;;5054264;28;20065;-67
2022/01/25 09:12:00;;;;;;;24.95;13.32;;;;;;;;;;5054015;28;20045;-67
2022/01/25 09:14:32;;;;;;;26.67;14.52;;;;;;;;;;5053889;28;20052;-67
2022/01/25 09:17:01;;;;;;;25.23;13.20;;;;;;;;;;5054259;28;20131;-67
2022/01/25 09:19:28;;;;;;;24.05;13.38;;;;;;;;;;5053582;28;20124;-67
2022/01/25 09:22:01;;;;;;;25.60;13.43;;;;;;;;;;5052830;28;20049;-67
2022/01/25 09:24:29;;;;;;;22.08;13.05;;;;;;;;;;5053815;28;20541;-67
2022/01/25 09:26:58;;;;;;;29.65;14.60;;;;;;;;;;5053709;28;20041;-67
2022/01/25 09:29:30;;;;;;;26.30;13.65;;;;;;;;;;5053889;28;20037;-67
2022/01/25 09:31:59;;;;;;;23.55;13.55;;;;;;;;;;5053375;28;20053;-67
2022/01/25 09:34:28;;;;;;;25.77;13.98;;;;;;;;;;5051701;28;20132;-67
2022/01/25 09:37:00;;;;;;;27.50;13.05;;;;;;;;;;5052433;28;20375;-67
2022/01/25 09:39:29;;;;;;;26.38;13.73;;;;;;;;;;5052186;28;20068;-67
2022/01/25 09:42:00;;;;;;;21.90;13.07;;;;;;;;;;5053329;28;20044;-67
2022/01/25 09:44:28;;;;;;;26.20;13.90;;;;;;;;;;5052478;28;20514;-67
2022/01/25 09:47:00;;;;;;;25.40;13.98;;;;;;;;;;5053557;28;20037;-67
2022/01/25 09:49:37;;;;;;;24.90;14.00;;;;;;;;;;5053385;28;20052;-67
2022/01/25 09:52:06;;;;;;;31.63;14.13;;;;;;;;;;5053483;28;20033;-67
2022/01/25 09:54:41;;;;;;;26.98;13.88;;;;;;;;;;5053521;28;20052;-67
2022/01/25 09:57:10;;;;;;;22.38;12.77;;;;;;;;;;5052019;28;20495;-67
2022/01/25 09:59:40;;;;;;;27.88;14.30;;;;;;;;;;5051682;28;20083;-67
2022/01/25 10:02:11;;;;;;;26.48;13.88;;;;;;;;;;5053440;28;20045;-67
2022/01/25 10:04:41;;;;;;;27.73;13.88;;;;;;;;;;5053385;28;20041;-67
2022/01/25 10:07:11;;;;;;;23.70;12.55;;;;;;;;;;5052920;28;20045;-67
2022/01/25 10:09:44;;;;;;;23.73;13.55;;;;;;;;;;5053287;28;20087;-67
2022/01/25 10:12:20;;;;;;;24.65;13.60;;;;;;;;;;5053134;28;20100;-67
2022/01/25 10:15:09;;;;;;;26.60;14.55;;;;;;;;;;5052926;28;20041;-67
2022/01/25 10:18:10;;;;;;;27.52;13.93;;;;;;;;;;5053268;28;20469;-67
2022/01/25 10:20:50;;;;;;;21.45;12.65;;;;;;;;;;5053040;28;20149;-67
2022/01/25 10:23:43;;;;;;;24.38;12.98;;;;;;;;;;5052995;28;20056;-68
2022/01/25 10:26:12;;;;;;;28.38;14.82;;;;;;;;;;5052899;28;20124;-67
2022/01/25 10:29:04;;;;;;;24.13;13.43;;;;;;;;;;5052935;28;20045;-67
2022/01/25 10:31:38;;;;;;;25.30;14.10;;;;;;;;;;5053251;28;20059;-67
2022/01/25 10:34:09;;;;;;;25.65;15.05;;;;;;;;;;5052709;28;20048;-67
2022/01/25 10:36:48;;;;;;;22.80;12.95;;;;;;;;;;5053210;28;20037;-67
2022/01/25 10:39:32;;;;;;;22.55;12.15;;;;;;;;;;5051821;28;20087;-67
2022/01/25 10:42:09;;;;;;;26.50;11.95;;;;;;;;;;5052779;28;20521;-67
2022/01/25 10:45:05;;;;;;;24.77;13.25;;;;;;;;;;5052659;28;20471;-67
2022/01/25 10:47:41;;;;;;;22.58;13.18;;;;;;;;;;5047231;28;20047;-67
2022/01/25 10:50:18;;;;;;;24.85;12.82;;;;;;;;;;5056635;28;20123;-67
2022/01/25 10:53:04;;;;;;;22.08;12.00;;;;;;;;;;5055807;28;20080;-67
2022/01/25 10:55:38;;;;;;;22.67;12.15;;;;;;;;;;5055283;28;20049;-67
2022/01/25 10:58:13;;;;;;;22.15;11.90;;;;;;;;;;5055188;28;20041;-67
2022/01/25 11:00:51;;;;;;;28.67;12.93;;;;;;;;;;5056968;28;20564;-67
2022/01/25 11:03:35;;;;;;;21.50;12.20;;;;;;;;;;5056420;28;20061;-67
2022/01/25 11:06:10;;;;;;;30.38;12.98;;;;;;;;;;5056025;28;20044;-67
2022/01/25 11:08:40;;;;;;;27.90;13.48;;;;;;;;;;5056759;28;20051;-67
2022/01/25 11:11:22;;;;;;;21.17;12.20;;;;;;;;;;5056226;28;20056;-67
2022/01/25 11:13:53;;;;;;;19.42;10.95;;;;;;;;;;5054494;28;20223;-67
2022/01/25 11:16:22;;;;;;;16.60;10.13;;;;;;;;;;5056157;28;20076;-67
2022/01/25 11:19:00;;;;;;;24.48;10.70;;;;;;;;;;5056166;28;20087;-67
2022/01/25 11:21:27;;;;;;;20.65;11.43;;;;;;;;;;5054914;28;20491;-67
2022/01/25 11:23:58;;;;;;;23.80;12.57;;;;;;;;;;5055564;28;20492;-67
2022/01/25 11:26:30;;;;;;;21.92;12.23;;;;;;;;;;5056191;28;20520;-67
2022/01/25 11:28:58;;;;;;;23.45;12.68;;;;;;;;;;5054772;28;20070;-67
2022/01/25 11:31:29;;;;;;;25.42;13.68;;;;;;;;;;5055789;28;20488;-67
2022/01/25 11:34:08;;;;;;;25.13;12.57;;;;;;;;;;5056226;28;20045;-67
2022/01/25 11:36:56;;;;;;;19.98;11.32;;;;;;;;;;5056141;28;20399;-67
2022/01/25 11:39:34;;;;;;;21.38;11.10;;;;;;;;;;5055567;28;20395;-67
2022/01/25 11:42:05;;;;;;;18.33;10.13;;;;;;;;;;5055915;28;20052;-67
2022/01/25 11:44:45;;;;;;;17.98;9.95;;;;;;;;;;5054329;28;20140;-67
2022/01/25 11:47:16;;;;;;;18.30;10.40;;;;;;;;;;5056000;28;20067;-67
2022/01/25 11:49:50;;;;;;;18.17;11.02;;;;;;;;;;5055376;28;20170;-67
2022/01/25 11:52:20;;;;;;;18.00;10.23;;;;;;;;;;5055613;28;20407;-67
2022/01/25 11:55:10;;;;;;;19.30;11.13;;;;;;;;;;5055484;28;20128;-67
2022/01/25 11:57:49;;;;;;;21.80;10.68;;;;;;;;;;5054865;28;20041;-67
2022/01/25 12:00:20;;;;;;;17.35;9.93;;;;;;;;;;5055461;28;20135;-67
2022/01/25 12:02:51;;;;;;;19.63;10.30;;;;;;;;;;5055197;28;20049;-66
2022/01/25 12:05:26;;;;;;;16.92;10.20;;;;;;;;;;5055589;28;20083;-66
2022/01/25 12:07:56;;;;;;;;;;;;;;;;;;5054530;28;20135;-66
2022/01/25 12:10:31;;;;;;;20.42;10.18;;;;;;;;;;5055051;28;19960;-66
2022/01/25 12:13:23;;;;;;;17.15;9.23;;;;;;;;;;5053922;28;20525;-66
2022/01/25 12:16:16;;;;;;;21.77;9.60;;;;;;;;;;5053826;28;20562;-66
2022/01/25 12:18:58;;;;;;;15.02;8.88;;;;;;;;;;5055144;28;20108;-66
2022/01/25 12:21:54;;;;;;;15.23;8.50;;;;;;;;;;5054704;28;20077;-67
2022/01/25 12:24:50;;;;;;;13.20;7.82;;;;;;;;;;5053066;28;20059;-66
2022/01/25 12:27:27;;;;;;;13.48;7.72;;;;;;;;;;5055624;28;20431;-66
2022/01/25 12:30:01;;;;;;;19.20;9.48;;;;;;;;;;5054960;28;20049;-67
2022/01/25 12:33:00;;;;;;;15.15;8.82;;;;;;;;;;5055051;28;20041;-66
2022/01/25 12:35:50;;;;;;;16.77;8.75;;;;;;;;;;5042218;28;20132;-67
2022/01/25 12:38:24;;;;;;;15.43;8.60;;;;;;;;;;5054920;28;20549;-67
2022/01/25 12:41:06;;;;;;;18.27;9.80;;;;;;;;;;5053555;28;20041;-66
2022/01/25 12:43:39;;;;;;;16.60;9.02;;;;;;;;;;5053227;28;20064;-66
2022/01/25 12:46:09;;;;;;;17.67;9.25;;;;;;;;;;5053391;28;20087;-67
2022/01/25 12:48:50;;;;;;;16.83;9.13;;;;;;;;;;5053545;28;20064;-66
2022/01/25 12:51:27;;;;;;;14.23;8.57;;;;;;;;;;5054549;28;20045;-67
2022/01/25 12:53:56;;;;;;;15.25;9.05;;;;;;;;;;5052796;28;20804;-67
2022/01/25 12:56:48;;;;;;;16.00;8.63;;;;;;;;;;5053313;28;20384;-67
2022/01/25 12:59:22;;;;;;;13.25;8.27;;;;;;;;;;5053052;28;20040;-66
2022/01/25 13:02:03;;;;;;;13.57;7.78;;;;;;;;;;5054065;28;20041;-67
2022/01/25 13:04:33;;;;;;;15.90;8.55;;;;;;;;;;5053681;28;20095;-66
2022/01/25 13:07:25;;;;;;;14.63;8.32;;;;;;;;;;5053861;28;20484;-66
2022/01/25 13:09:59;;;;;;;17.15;9.07;;;;;;;;;;5053266;28;20045;-66
2022/01/25 13:12:36;;;;;;;13.27;8.20;;;;;;;;;;5052768;28;20047;-66
2022/01/25 13:15:34;;;;;;;16.23;9.48;;;;;;;;;;5054092;28;20037;-66
2022/01/25 13:18:11;;;;;;;12.90;7.50;;;;;;;;;;5052581;28;20615;-66
2022/01/25 13:20:42;;;;;;;16.55;9.10;;;;;;;;;;5053723;28;20037;-66
2022/01/25 13:23:35;;;;;;;15.75;8.77;;;;;;;;;;5053905;28;20483;-66
2022/01/25 13:26:14;;;;;;;17.48;9.00;;;;;;;;;;5052655;28;20048;-66
2022/01/25 13:31:19;;;;;;;;;;;;;;;;;;5054376;28;20471;-67
2022/01/25 13:33:54;;;;;;;15.40;8.15;;;;;;;;;;5052917;28;19928;-67
2022/01/25 13:36:22;;;;;;;17.75;9.52;;;;;;;;;;5053796;28;20048;-67
2022/01/25 13:38:51;;;;;;;15.48;9.30;;;;;;;;;;5053400;28;20037;-67
2022/01/25 13:41:39;;;;;;;22.92;10.60;;;;;;;;;;5053389;28;20555;-67
2022/01/25 13:46:56;;;;;;;30.20;12.45;;;;;;;;;;5053641;28;20106;-67
2022/01/25 13:49:24;;;;;;;20.10;10.73;;;;;;;;;;5051880;28;20045;-67
2022/01/25 13:51:59;;;;;;;23.55;12.00;;;;;;;;;;5053429;28;20037;-67
2022/01/25 13:54:29;;;;;;;19.77;11.00;;;;;;;;;;5053287;28;20048;-67
2022/01/25 13:57:09;;;;;;;16.60;9.35;;;;;;;;;;5052004;28;20071;-67
2022/01/25 13:59:40;;;;;;;23.85;10.45;;;;;;;;;;5053306;28;20041;-67
2022/01/25 14:02:13;;;;;;;19.70;10.25;;;;;;;;;;5053273;28;20039;-67
2022/01/25 14:04:41;;;;;;;23.35;11.32;;;;;;;;;;5053715;28;20399;-67
2022/01/25 14:07:15;;;;;;;19.92;10.43;;;;;;;;;;5053017;28;20040;-67
2022/01/25 14:09:50;;;;;;;23.15;11.27;;;;;;;;;;5053326;28;20399;-67
2022/01/25 14:25:51;;;;;;;20.85;10.02;;;;;;;;;;5056966;28;20154;-67
2022/01/25 14:28:24;;;;;;;19.23;9.98;;;;;;;;;;5057053;28;20049;-67
2022/01/25 14:31:01;;;;;;;21.10;9.45;;;;;;;;;;5055923;28;20051;-67
2022/01/25 14:33:32;;;;;;;20.25;9.77;;;;;;;;;;5055802;28;20136;-66
2022/01/25 14:36:06;;;;;;;21.67;10.02;;;;;;;;;;5056717;28;20067;-67
2022/01/25 14:38:39;;;;;;;20.33;10.18;;;;;;;;;;5056941;28;20044;-67
2022/01/25 14:41:13;;;;;;;21.30;10.70;;;;;;;;;;5056943;28;20052;-67
2022/01/25 14:43:47;;;;;;;18.38;9.73;;;;;;;;;;5056810;28;20041;-67
2022/01/25 14:46:22;;;;;;;19.52;9.88;;;;;;;;;;5055378;28;20411;-67
2022/01/25 14:49:06;;;;;;;19.27;9.85;;;;;;;;;;5055570;28;20053;-66
2022/01/25 14:51:33;;;;;;;19.25;10.15;;;;;;;;;;5057034;28;20387;-67
2022/01/25 14:54:01;;;;;;;20.13;10.38;;;;;;;;;;5056560;28;20049;-67
2022/01/25 14:56:29;;;;;;;21.10;10.90;;;;;;;;;;5056718;28;20567;-67
2022/01/25 14:59:23;;;;;;;24.65;11.20;;;;;;;;;;5056341;28;20045;-67
2022/01/25 15:01:52;;;;;;;20.13;11.55;;;;;;;;;;5055047;28;20075;-67
2022/01/25 15:04:20;;;;;;;20.90;11.80;;;;;;;;;;5056211;28;20037;-67
2022/01/25 15:06:53;;;;;;;22.25;11.38;;;;;;;;;;5055260;28;20494;-67
2022/01/25 15:09:21;;;;;;;26.90;11.57;;;;;;;;;;5055737;28;20041;-67
2022/01/25 15:11:52;;;;;;;22.17;10.52;;;;;;;;;;5056966;28;20040;-67
2022/01/25 15:14:34;;;;;;;31.05;12.63;;;;;;;;;;5056549;28;20099;-66
2022/01/25 15:17:03;;;;;;;29.27;12.95;;;;;;;;;;5056367;28;20047;-67
2022/01/25 15:19:34;;;;;;;28.23;13.32;;;;;;;;;;5054085;28;20396;-67
2022/01/25 15:22:03;;;;;;;37.35;14.07;;;;;;;;;;5056009;28;20055;-66
2022/01/25 15:24:31;;;;;;;30.98;14.02;;;;;;;;;;5054439;28;20041;-66
2022/01/25 15:27:08;;;;;;;24.38;12.38;;;;;;;;;;5044440;28;20459;-66
2022/01/25 15:30:01;;;;;;;24.98;13.75;;;;;;;;;;5035791;28;20045;-66
2022/01/25 15:32:36;;;;;;;31.95;13.13;;;;;;;;;;5034118;28;20063;-68
2022/01/25 15:35:09;;;;;;;30.05;14.32;;;;;;;;;;5035689;28;20540;-67
2022/01/25 15:37:43;;;;;;;40.55;16.98;;;;;;;;;;5036083;28;20120;-71
2022/01/25 15:40:13;;;;;;;35.08;17.17;;;;;;;;;;5034546;28;20519;-71
2022/01/25 15:42:41;;;;;;;32.83;16.55;;;;;;;;;;5036021;28;20124;-71
2022/01/25 15:45:23;;;;;;;41.30;18.48;;;;;;;;;;5035586;28;20043;-71
2022/01/25 15:47:57;;;;;;;37.80;18.15;;;;;;;;;;5035481;28;20041;-71
2022/01/25 15:50:28;;;;;;;36.78;16.42;;;;;;;;;;5035600;28;20051;-71
2022/01/25 15:52:58;;;;;;;29.90;14.73;;;;;;;;;;5035861;28;20045;-71
2022/01/25 15:55:27;;;;;;;26.10;14.90;;;;;;;;;;5035173;28;20064;-71
2022/01/25 15:57:54;;;;;;;41.58;24.58;;;;;;;;;;5034817;28;20034;-71
2022/01/25 16:00:22;;;;;;;31.52;19.08;;;;;;;;;;5034986;28;20045;-71
2022/01/25 16:02:51;;;;;;;25.00;12.98;;;;;;;;;;5035034;28;20392;-71
2022/01/25 16:05:24;;;;;;;18.60;9.90;;;;;;;;;;5051359;28;20068;-71
2022/01/25 16:08:07;;;;;;;17.20;9.45;;;;;;;;;;5034100;28;20056;-71
2022/01/25 16:10:38;;;;;;;21.48;9.60;;;;;;;;;;5035377;28;20037;-71
2022/01/25 16:13:05;;;;;;;18.02;9.20;;;;;;;;;;5034456;28;20568;-71
2022/01/25 16:16:13;;;;;;;18.85;9.32;;;;;;;;;;5034891;28;20566;-71
2022/01/25 16:18:41;;;;;;;20.58;9.48;;;;;;;;;;5035343;28;20447;-71
2022/01/25 16:24:14;;;;;;;20.88;10.90;;;;;;;;;;5040506;28;20087;-71
2022/01/25 16:27:06;;;;;;;19.65;11.73;;;;;;;;;;5053000;28;20155;-73
2022/01/25 16:30:00;;;;;;;27.27;13.80;;;;;;;;;;5066875;28;20547;-71
2022/01/25 16:32:35;;;;;;;20.60;11.68;;;;;;;;;;5033854;28;20372;-72
2022/01/25 16:35:07;;;;;;;23.42;10.07;;;;;;;;;;5035228;28;20125;-70
2022/01/25 16:37:34;;;;;;;17.13;9.57;;;;;;;;;;5034341;28;20124;-71
2022/01/25 16:40:03;;;;;;;26.35;11.73;;;;;;;;;;5034937;28;20041;-71
2022/01/25 16:42:30;;;;;;;22.27;11.13;;;;;;;;;;5035556;28;20037;-71
2022/01/25 16:45:03;;;;;;;38.85;19.10;;;;;;;;;;5045221;28;20099;-71
2022/01/25 16:47:32;;;;;;;32.33;14.00;;;;;;;;;;5066391;28;20040;-70
2022/01/25 16:50:01;;;;;;;22.02;10.98;;;;;;;;;;5032830;28;20049;-71
2022/01/25 16:52:28;;;;;;;25.73;11.00;;;;;;;;;;5066093;28;20404;-71
2022/01/25 16:54:56;;;;;;;22.60;10.63;;;;;;;;;;5050555;28;20051;-72
2022/01/25 16:57:43;;;;;;;21.15;11.55;;;;;;;;;;5035699;28;20041;-71
2022/01/25 17:00:13;;;;;;;27.52;13.05;;;;;;;;;;5065710;28;20037;-71
2022/01/25 17:03:05;;;;;;;26.75;12.35;;;;;;;;;;5050340;28;20037;-72
2022/01/25 17:05:36;;;;;;;21.33;11.77;;;;;;;;;;5052604;28;20080;-72
2022/01/25 17:08:06;;;;;;;24.77;12.05;;;;;;;;;;5052427;28;20037;-72
2022/01/25 17:10:34;;;;;;;27.85;12.48;;;;;;;;;;5052144;28;20052;-74
2022/01/25 17:13:02;;;;;;;27.50;13.75;;;;;;;;;;5054122;28;20075;-73
2022/01/25 17:15:33;;;;;;;24.95;13.60;;;;;;;;;;5054334;28;20071;-74
2022/01/25 17:18:31;;;;;;;25.00;12.35;;;;;;;;;;5053878;28;20083;-74
2022/01/25 17:21:38;;;;;;;30.92;14.38;;;;;;;;;;5053855;28;20037;-73
2022/01/25 17:24:05;;;;;;;24.85;12.48;;;;;;;;;;5052968;28;20055;-74